sensor_id;sensor_type;location;lat;lon;timestamp;temperature;humidity
34147;DHT22;20423;49.448;9.056;2024-03-17T00:01:37;3.90;99.90
34147;DHT22;20423;49.448;9.056;2024-03-17T00:04:03;3.90;99.90
34147;DHT22;20423;49.448;9.056;2024-03-17T00:06:29;3.90;99.90
34147;DHT22;20423;49.448;9.056;2024-03-17T00:08:55;3.90;99.90
34147;DHT22;20423;49.448;9.056;2024-03-17T00:11:21;3.90;99.90
34147;DHT22;20423;49.448;9.056;2024-03-17T00:13:46;3.70;99.90
34147;DHT22;20423;49.448;9.056;2024-03-17T00:16:13;3.60;99.90
34147;DHT22;20423;49.448;9.056;2024-03-17T00:18:39;3.50;99.90
34147;DHT22;20423;49.448;9.056;2024-03-17T00:21:06;3.30;99.90
34147;DHT22;20423;49.448;9.056;2024-03-17T00:23:32;3.10;99.90
34147;DHT22;20423;49.448;9.056;2024-03-17T00:25:58;2.90;99.90
34147;DHT22;20423;49.448;9.056;2024-03-17T00:28:23;2.70;99.90
34147;DHT22;20423;49.448;9.056;2024-03-17T00:30:50;2.60;99.90
34147;DHT22;20423;49.448;9.056;2024-03-17T00:33:16;2.40;99.90
34147;DHT22;20423;49.448;9.056;2024-03-17T00:35:42;2.40;99.90
34147;DHT22;20423;49.448;9.056;2024-03-17T00:38:07;2.40;99.90
34147;DHT22;20423;49.448;9.056;2024-03-17T00:40:39;2.40;99.90
34147;DHT22;20423;49.448;9.056;2024-03-17T00:43:08;2.40;99.90
34147;DHT22;20423;49.448;9.056;2024-03-17T00:45:33;2.30;99.90
34147;DHT22;20423;49.448;9.056;2024-03-17T00:47:59;2.20;99.90
34147;DHT22;20423;49.448;9.056;2024-03-17T00:50:25;2.10;99.90
34147;DHT22;20423;49.448;9.056;2024-03-17T00:52:51;2.10;99.90
34147;DHT22;20423;49.448;9.056;2024-03-17T00:55:17;2.10;99.90
34147;DHT22;20423;49.448;9.056;2024-03-17T00:57:42;2.10;99.90
34147;DHT22;20423;49.448;9.056;2024-03-17T01:00:08;2.10;99.90
34147;DHT22;20423;49.448;9.056;2024-03-17T01:02:37;2.00;99.90
34147;DHT22;20423;49.448;9.056;2024-03-17T01:05:03;2.00;99.90
34147;DHT22;20423;49.448;9.056;2024-03-17T01:07:33;1.80;99.90
34147;DHT22;20423;49.448;9.056;2024-03-17T01:09:58;1.80;99.90
34147;DHT22;20423;49.448;9.056;2024-03-17T01:12:25;1.70;99.90
34147;DHT22;20423;49.448;9.056;2024-03-17T01:14:51;1.70;99.90
34147;DHT22;20423;49.448;9.056;2024-03-17T01:17:16;1.70;99.90
34147;DHT22;20423;49.448;9.056;2024-03-17T01:19:45;1.70;99.90
34147;DHT22;20423;49.448;9.056;2024-03-17T01:22:11;1.70;99.90
34147;DHT22;20423;49.448;9.056;2024-03-17T01:24:37;1.80;99.90
34147;DHT22;20423;49.448;9.056;2024-03-17T01:27:05;1.80;99.90
34147;DHT22;20423;49.448;9.056;2024-03-17T01:29:32;1.80;99.90
34147;DHT22;20423;49.448;9.056;2024-03-17T01:31:57;1.70;99.90
34147;DHT22;20423;49.448;9.056;2024-03-17T01:34:23;1.60;99.90
34147;DHT22;20423;49.448;9.056;2024-03-17T01:39:56;1.60;99.90
34147;DHT22;20423;49.448;9.056;2024-03-17T01:42:21;1.50;99.90
34147;DHT22;20423;49.448;9.056;2024-03-17T01:44:48;1.50;99.90
34147;DHT22;20423;49.448;9.056;2024-03-17T01:47:19;1.40;99.90
34147;DHT22;20423;49.448;9.056;2024-03-17T01:49:47;1.40;99.90
34147;DHT22;20423;49.448;9.056;2024-03-17T01:52:16;1.40;99.90
34147;DHT22;20423;49.448;9.056;2024-03-17T01:54:43;1.30;99.90
34147;DHT22;20423;49.448;9.056;2024-03-17T01:57:09;1.20;99.90
34147;DHT22;20423;49.448;9.056;2024-03-17T01:59:36;1.10;99.90
34147;DHT22;20423;49.448;9.056;2024-03-17T02:02:03;1.10;99.90
34147;DHT22;20423;49.448;9.056;2024-03-17T02:04:30;1.10;99.90
34147;DHT22;20423;49.448;9.056;2024-03-17T02:06:55;1.10;99.90
34147;DHT22;20423;49.448;9.056;2024-03-17T02:09:21;1.10;99.90
34147;DHT22;20423;49.448;9.056;2024-03-17T02:11:48;1.00;99.90
34147;DHT22;20423;49.448;9.056;2024-03-17T02:14:14;0.90;99.90
34147;DHT22;20423;49.448;9.056;2024-03-17T02:16:40;0.90;99.90
34147;DHT22;20423;49.448;9.056;2024-03-17T02:19:06;0.90;99.90
34147;DHT22;20423;49.448;9.056;2024-03-17T02:21:32;0.90;99.90
34147;DHT22;20423;49.448;9.056;2024-03-17T02:23:57;0.80;99.90
34147;DHT22;20423;49.448;9.056;2024-03-17T02:26:26;0.80;99.90
34147;DHT22;20423;49.448;9.056;2024-03-17T02:28:51;0.80;99.90
34147;DHT22;20423;49.448;9.056;2024-03-17T02:31:18;0.80;99.90
34147;DHT22;20423;49.448;9.056;2024-03-17T02:33:45;0.80;99.90
34147;DHT22;20423;49.448;9.056;2024-03-17T02:36:11;0.90;99.90
34147;DHT22;20423;49.448;9.056;2024-03-17T02:38:40;1.00;99.90
34147;DHT22;20423;49.448;9.056;2024-03-17T02:41:25;1.10;99.90
34147;DHT22;20423;49.448;9.056;2024-03-17T02:43:51;1.10;99.90
34147;DHT22;20423;49.448;9.056;2024-03-17T02:46:18;1.20;99.90
34147;DHT22;20423;49.448;9.056;2024-03-17T02:48:47;1.30;99.90
34147;DHT22;20423;49.448;9.056;2024-03-17T02:51:14;1.30;99.90
34147;DHT22;20423;49.448;9.056;2024-03-17T02:53:44;1.20;99.90
34147;DHT22;20423;49.448;9.056;2024-03-17T02:56:14;1.20;99.90
34147;DHT22;20423;49.448;9.056;2024-03-17T02:58:44;1.20;99.90
34147;DHT22;20423;49.448;9.056;2024-03-17T03:01:11;1.20;99.90
34147;DHT22;20423;49.448;9.056;2024-03-17T03:03:37;1.20;99.90
34147;DHT22;20423;49.448;9.056;2024-03-17T03:06:03;1.20;99.90
34147;DHT22;20423;49.448;9.056;2024-03-17T03:08:40;1.20;99.90
34147;DHT22;20423;49.448;9.056;2024-03-17T03:11:08;1.20;99.90
34147;DHT22;20423;49.448;9.056;2024-03-17T03:13:38;1.20;99.90
34147;DHT22;20423;49.448;9.056;2024-03-17T03:16:09;1.40;99.90
34147;DHT22;20423;49.448;9.056;2024-03-17T03:18:36;1.40;99.90
34147;DHT22;20423;49.448;9.056;2024-03-17T03:21:03;1.40;99.90
34147;DHT22;20423;49.448;9.056;2024-03-17T03:23:28;1.50;99.90
34147;DHT22;20423;49.448;9.056;2024-03-17T03:25:55;1.50;99.90
34147;DHT22;20423;49.448;9.056;2024-03-17T03:28:22;1.50;99.90
34147;DHT22;20423;49.448;9.056;2024-03-17T03:30:48;1.40;99.90
34147;DHT22;20423;49.448;9.056;2024-03-17T03:33:14;1.40;99.90
34147;DHT22;20423;49.448;9.056;2024-03-17T03:35:39;1.30;99.90
34147;DHT22;20423;49.448;9.056;2024-03-17T03:38:05;1.20;99.90
34147;DHT22;20423;49.448;9.056;2024-03-17T03:40:31;1.20;99.90
34147;DHT22;20423;49.448;9.056;2024-03-17T03:42:58;1.20;99.90
34147;DHT22;20423;49.448;9.056;2024-03-17T03:45:24;1.10;99.90
34147;DHT22;20423;49.448;9.056;2024-03-17T03:47:51;1.10;99.90
34147;DHT22;20423;49.448;9.056;2024-03-17T03:50:20;1.20;99.90
34147;DHT22;20423;49.448;9.056;2024-03-17T03:52:46;1.30;99.90
34147;DHT22;20423;49.448;9.056;2024-03-17T03:55:12;1.40;99.90
34147;DHT22;20423;49.448;9.056;2024-03-17T03:57:41;1.40;99.90
34147;DHT22;20423;49.448;9.056;2024-03-17T04:00:08;1.50;99.90
34147;DHT22;20423;49.448;9.056;2024-03-17T04:02:40;1.80;99.90
34147;DHT22;20423;49.448;9.056;2024-03-17T04:05:07;1.80;99.90
34147;DHT22;20423;49.448;9.056;2024-03-17T04:07:33;1.90;99.90
34147;DHT22;20423;49.448;9.056;2024-03-17T04:10:00;2.10;99.90
34147;DHT22;20423;49.448;9.056;2024-03-17T04:12:26;2.20;99.90
34147;DHT22;20423;49.448;9.056;2024-03-17T04:14:53;2.30;99.90
34147;DHT22;20423;49.448;9.056;2024-03-17T04:17:22;2.50;99.90
34147;DHT22;20423;49.448;9.056;2024-03-17T04:19:49;2.50;99.90
34147;DHT22;20423;49.448;9.056;2024-03-17T04:22:19;2.50;99.90
34147;DHT22;20423;49.448;9.056;2024-03-17T04:24:46;2.60;99.90
34147;DHT22;20423;49.448;9.056;2024-03-17T04:27:12;2.70;99.90
34147;DHT22;20423;49.448;9.056;2024-03-17T04:29:39;2.70;99.90
34147;DHT22;20423;49.448;9.056;2024-03-17T04:32:06;2.80;99.90
34147;DHT22;20423;49.448;9.056;2024-03-17T04:34:32;2.90;99.90
34147;DHT22;20423;49.448;9.056;2024-03-17T04:36:58;2.90;99.90
34147;DHT22;20423;49.448;9.056;2024-03-17T04:39:24;3.00;99.90
34147;DHT22;20423;49.448;9.056;2024-03-17T04:41:50;2.90;99.90
34147;DHT22;20423;49.448;9.056;2024-03-17T04:44:17;2.90;99.90
34147;DHT22;20423;49.448;9.056;2024-03-17T04:46:43;2.80;99.90
34147;DHT22;20423;49.448;9.056;2024-03-17T04:49:09;2.70;99.90
34147;DHT22;20423;49.448;9.056;2024-03-17T04:51:35;2.60;99.90
34147;DHT22;20423;49.448;9.056;2024-03-17T04:54:04;2.50;99.90
34147;DHT22;20423;49.448;9.056;2024-03-17T04:56:31;2.50;99.90
34147;DHT22;20423;49.448;9.056;2024-03-17T04:58:56;2.50;99.90
34147;DHT22;20423;49.448;9.056;2024-03-17T05:01:22;2.30;99.90
34147;DHT22;20423;49.448;9.056;2024-03-17T05:03:51;2.30;99.90
34147;DHT22;20423;49.448;9.056;2024-03-17T05:06:17;2.20;99.90
34147;DHT22;20423;49.448;9.056;2024-03-17T05:08:43;2.10;99.90
34147;DHT22;20423;49.448;9.056;2024-03-17T05:11:09;2.00;99.90
34147;DHT22;20423;49.448;9.056;2024-03-17T05:13:35;1.80;99.90
34147;DHT22;20423;49.448;9.056;2024-03-17T05:16:02;1.70;99.90
34147;DHT22;20423;49.448;9.056;2024-03-17T05:18:29;1.70;99.90
34147;DHT22;20423;49.448;9.056;2024-03-17T05:21:07;1.60;99.90
34147;DHT22;20423;49.448;9.056;2024-03-17T05:23:34;1.70;99.90
34147;DHT22;20423;49.448;9.056;2024-03-17T05:26:01;1.70;99.90
34147;DHT22;20423;49.448;9.056;2024-03-17T05:28:30;1.70;99.90
34147;DHT22;20423;49.448;9.056;2024-03-17T05:30:55;1.70;99.90
34147;DHT22;20423;49.448;9.056;2024-03-17T05:33:23;1.60;99.90
34147;DHT22;20423;49.448;9.056;2024-03-17T05:35:59;1.50;99.90
34147;DHT22;20423;49.448;9.056;2024-03-17T05:38:29;1.40;99.90
34147;DHT22;20423;49.448;9.056;2024-03-17T05:41:02;1.40;99.90
34147;DHT22;20423;49.448;9.056;2024-03-17T05:43:33;1.40;99.90
34147;DHT22;20423;49.448;9.056;2024-03-17T05:46:06;1.40;99.90
34147;DHT22;20423;49.448;9.056;2024-03-17T05:48:33;1.40;99.90
34147;DHT22;20423;49.448;9.056;2024-03-17T05:51:02;1.50;99.90
34147;DHT22;20423;49.448;9.056;2024-03-17T05:53:28;1.60;99.90
34147;DHT22;20423;49.448;9.056;2024-03-17T05:55:54;1.80;99.90
34147;DHT22;20423;49.448;9.056;2024-03-17T05:58:21;1.90;99.90
34147;DHT22;20423;49.448;9.056;2024-03-17T06:00:46;2.00;99.90
34147;DHT22;20423;49.448;9.056;2024-03-17T06:03:12;2.10;99.90
34147;DHT22;20423;49.448;9.056;2024-03-17T06:05:39;2.20;99.90
34147;DHT22;20423;49.448;9.056;2024-03-17T06:08:08;2.40;99.90
34147;DHT22;20423;49.448;9.056;2024-03-17T06:10:35;2.60;99.90
34147;DHT22;20423;49.448;9.056;2024-03-17T06:13:02;3.00;99.90
34147;DHT22;20423;49.448;9.056;2024-03-17T06:18:53;3.60;99.90
34147;DHT22;20423;49.448;9.056;2024-03-17T06:21:19;3.90;99.90
34147;DHT22;20423;49.448;9.056;2024-03-17T06:23:45;4.20;99.90
34147;DHT22;20423;49.448;9.056;2024-03-17T06:26:12;4.40;99.90
34147;DHT22;20423;49.448;9.056;2024-03-17T06:28:38;4.50;99.90
34147;DHT22;20423;49.448;9.056;2024-03-17T06:31:04;4.60;99.90
34147;DHT22;20423;49.448;9.056;2024-03-17T06:33:32;4.70;99.90
34147;DHT22;20423;49.448;9.056;2024-03-17T06:36:01;4.80;99.90
34147;DHT22;20423;49.448;9.056;2024-03-17T06:38:29;4.80;99.90
34147;DHT22;20423;49.448;9.056;2024-03-17T06:40:55;4.90;99.90
34147;DHT22;20423;49.448;9.056;2024-03-17T06:43:21;4.90;99.90
34147;DHT22;20423;49.448;9.056;2024-03-17T06:46:00;4.90;99.90
34147;DHT22;20423;49.448;9.056;2024-03-17T06:48:27;5.10;99.90
34147;DHT22;20423;49.448;9.056;2024-03-17T06:50:54;5.10;99.90
34147;DHT22;20423;49.448;9.056;2024-03-17T06:53:23;5.20;99.90
34147;DHT22;20423;49.448;9.056;2024-03-17T06:55:55;5.30;99.90
34147;DHT22;20423;49.448;9.056;2024-03-17T06:58:25;5.40;99.90
34147;DHT22;20423;49.448;9.056;2024-03-17T07:00:53;5.60;99.90
34147;DHT22;20423;49.448;9.056;2024-03-17T07:03:19;5.60;99.90
34147;DHT22;20423;49.448;9.056;2024-03-17T07:05:51;5.60;99.90
34147;DHT22;20423;49.448;9.056;2024-03-17T07:08:17;5.50;99.90
34147;DHT22;20423;49.448;9.056;2024-03-17T07:10:55;5.30;99.90
34147;DHT22;20423;49.448;9.056;2024-03-17T07:13:21;5.10;99.90
34147;DHT22;20423;49.448;9.056;2024-03-17T07:15:47;5.00;99.90
34147;DHT22;20423;49.448;9.056;2024-03-17T07:18:13;5.10;99.90
34147;DHT22;20423;49.448;9.056;2024-03-17T07:20:39;5.10;99.90
34147;DHT22;20423;49.448;9.056;2024-03-17T07:23:05;5.30;99.90
34147;DHT22;20423;49.448;9.056;2024-03-17T07:25:30;5.50;99.90
34147;DHT22;20423;49.448;9.056;2024-03-17T07:27:56;5.80;99.90
34147;DHT22;20423;49.448;9.056;2024-03-17T07:30:22;6.10;99.90
34147;DHT22;20423;49.448;9.056;2024-03-17T07:32:47;6.40;99.90
34147;DHT22;20423;49.448;9.056;2024-03-17T07:35:13;6.60;99.90
34147;DHT22;20423;49.448;9.056;2024-03-17T07:37:39;6.80;99.90
34147;DHT22;20423;49.448;9.056;2024-03-17T07:40:06;7.00;99.90
34147;DHT22;20423;49.448;9.056;2024-03-17T07:42:36;7.20;99.90
34147;DHT22;20423;49.448;9.056;2024-03-17T07:45:02;7.40;99.90
34147;DHT22;20423;49.448;9.056;2024-03-17T07:47:29;7.60;99.90
34147;DHT22;20423;49.448;9.056;2024-03-17T07:50:04;7.70;99.90
34147;DHT22;20423;49.448;9.056;2024-03-17T07:52:31;7.90;99.90
34147;DHT22;20423;49.448;9.056;2024-03-17T07:54:57;8.00;99.90
34147;DHT22;20423;49.448;9.056;2024-03-17T07:57:23;7.90;99.90
34147;DHT22;20423;49.448;9.056;2024-03-17T07:59:52;7.90;99.90
34147;DHT22;20423;49.448;9.056;2024-03-17T08:02:18;7.80;99.90
34147;DHT22;20423;49.448;9.056;2024-03-17T08:04:44;7.80;99.90
34147;DHT22;20423;49.448;9.056;2024-03-17T08:07:12;7.80;99.90
34147;DHT22;20423;49.448;9.056;2024-03-17T08:09:38;7.60;99.90
34147;DHT22;20423;49.448;9.056;2024-03-17T08:12:04;7.70;99.90
34147;DHT22;20423;49.448;9.056;2024-03-17T08:14:30;7.70;99.90
34147;DHT22;20423;49.448;9.056;2024-03-17T08:16:56;7.80;99.90
34147;DHT22;20423;49.448;9.056;2024-03-17T08:19:22;7.80;99.90
34147;DHT22;20423;49.448;9.056;2024-03-17T08:21:48;7.90;99.90
34147;DHT22;20423;49.448;9.056;2024-03-17T08:24:14;7.90;99.90
34147;DHT22;20423;49.448;9.056;2024-03-17T08:26:40;8.00;99.90
34147;DHT22;20423;49.448;9.056;2024-03-17T08:29:06;8.00;99.90
34147;DHT22;20423;49.448;9.056;2024-03-17T08:31:32;8.20;99.90
34147;DHT22;20423;49.448;9.056;2024-03-17T08:33:58;8.20;99.90
34147;DHT22;20423;49.448;9.056;2024-03-17T08:36:24;8.30;99.90
34147;DHT22;20423;49.448;9.056;2024-03-17T08:38:50;8.50;99.90
34147;DHT22;20423;49.448;9.056;2024-03-17T08:41:16;8.60;99.90
34147;DHT22;20423;49.448;9.056;2024-03-17T08:43:42;8.80;99.90
34147;DHT22;20423;49.448;9.056;2024-03-17T08:46:09;9.20;99.90
34147;DHT22;20423;49.448;9.056;2024-03-17T08:48:41;9.40;99.90
34147;DHT22;20423;49.448;9.056;2024-03-17T08:51:08;9.60;99.90
34147;DHT22;20423;49.448;9.056;2024-03-17T08:53:35;9.70;99.90
34147;DHT22;20423;49.448;9.056;2024-03-17T08:56:03;9.90;99.90
34147;DHT22;20423;49.448;9.056;2024-03-17T08:58:29;9.80;99.90
34147;DHT22;20423;49.448;9.056;2024-03-17T09:00:54;9.80;99.90
34147;DHT22;20423;49.448;9.056;2024-03-17T09:03:22;10.00;99.90
34147;DHT22;20423;49.448;9.056;2024-03-17T09:05:48;10.10;99.90
34147;DHT22;20423;49.448;9.056;2024-03-17T09:08:19;10.50;99.90
34147;DHT22;20423;49.448;9.056;2024-03-17T09:10:46;10.70;99.90
34147;DHT22;20423;49.448;9.056;2024-03-17T09:13:17;10.90;99.90
34147;DHT22;20423;49.448;9.056;2024-03-17T09:15:57;11.20;99.90
34147;DHT22;20423;49.448;9.056;2024-03-17T09:18:33;11.50;99.90
34147;DHT22;20423;49.448;9.056;2024-03-17T09:20:59;11.60;99.90
34147;DHT22;20423;49.448;9.056;2024-03-17T09:23:26;11.50;99.90
34147;DHT22;20423;49.448;9.056;2024-03-17T09:26:01;11.20;99.90
34147;DHT22;20423;49.448;9.056;2024-03-17T09:28:28;11.20;99.90
34147;DHT22;20423;49.448;9.056;2024-03-17T09:30:55;11.20;99.90
34147;DHT22;20423;49.448;9.056;2024-03-17T09:33:22;11.20;99.90
34147;DHT22;20423;49.448;9.056;2024-03-17T09:35:59;11.00;99.90
34147;DHT22;20423;49.448;9.056;2024-03-17T09:38:27;10.70;99.90
34147;DHT22;20423;49.448;9.056;2024-03-17T09:40:53;11.00;99.90
34147;DHT22;20423;49.448;9.056;2024-03-17T09:43:21;11.30;99.90
34147;DHT22;20423;49.448;9.056;2024-03-17T09:45:47;11.40;99.90
34147;DHT22;20423;49.448;9.056;2024-03-17T09:48:17;11.30;99.90
34147;DHT22;20423;49.448;9.056;2024-03-17T09:53:16;11.90;99.90
34147;DHT22;20423;49.448;9.056;2024-03-17T09:55:43;12.50;99.90
34147;DHT22;20423;49.448;9.056;2024-03-17T09:58:16;12.10;99.90
34147;DHT22;20423;49.448;9.056;2024-03-17T10:00:43;11.90;99.90
34147;DHT22;20423;49.448;9.056;2024-03-17T10:03:09;12.60;99.90
34147;DHT22;20423;49.448;9.056;2024-03-17T10:05:35;12.80;99.90
34147;DHT22;20423;49.448;9.056;2024-03-17T10:08:00;12.80;99.90
34147;DHT22;20423;49.448;9.056;2024-03-17T10:10:26;12.80;99.90
34147;DHT22;20423;49.448;9.056;2024-03-17T10:12:52;12.80;99.90
34147;DHT22;20423;49.448;9.056;2024-03-17T10:15:19;12.50;99.90
34147;DHT22;20423;49.448;9.056;2024-03-17T10:17:46;12.80;99.90
34147;DHT22;20423;49.448;9.056;2024-03-17T10:25:28;13.20;99.90
34147;DHT22;20423;49.448;9.056;2024-03-17T10:27:55;13.30;99.90
34147;DHT22;20423;49.448;9.056;2024-03-17T10:30:22;12.60;99.90
34147;DHT22;20423;49.448;9.056;2024-03-17T10:33:22;12.30;99.90
34147;DHT22;20423;49.448;9.056;2024-03-17T10:35:50;12.40;99.90
34147;DHT22;20423;49.448;9.056;2024-03-17T10:38:16;12.90;99.90
34147;DHT22;20423;49.448;9.056;2024-03-17T10:40:43;13.30;99.90
34147;DHT22;20423;49.448;9.056;2024-03-17T10:43:10;13.50;99.90
34147;DHT22;20423;49.448;9.056;2024-03-17T10:45:37;14.30;99.90
34147;DHT22;20423;49.448;9.056;2024-03-17T10:48:08;14.20;99.90
34147;DHT22;20423;49.448;9.056;2024-03-17T10:50:39;13.80;99.90
34147;DHT22;20423;49.448;9.056;2024-03-17T10:53:06;13.60;99.90
34147;DHT22;20423;49.448;9.056;2024-03-17T10:55:42;13.50;99.90
34147;DHT22;20423;49.448;9.056;2024-03-17T10:58:34;13.30;99.90
34147;DHT22;20423;49.448;9.056;2024-03-17T11:01:01;13.00;99.90
34147;DHT22;20423;49.448;9.056;2024-03-17T11:03:31;13.30;99.90
34147;DHT22;20423;49.448;9.056;2024-03-17T11:05:57;14.00;99.90
34147;DHT22;20423;49.448;9.056;2024-03-17T11:08:24;14.50;99.90
34147;DHT22;20423;49.448;9.056;2024-03-17T11:10:52;14.30;99.90
34147;DHT22;20423;49.448;9.056;2024-03-17T11:13:28;14.30;99.90
34147;DHT22;20423;49.448;9.056;2024-03-17T11:15:58;14.70;99.90
34147;DHT22;20423;49.448;9.056;2024-03-17T11:21:07;15.10;99.90
34147;DHT22;20423;49.448;9.056;2024-03-17T11:23:41;15.40;99.90
34147;DHT22;20423;49.448;9.056;2024-03-17T11:26:07;15.20;99.90
34147;DHT22;20423;49.448;9.056;2024-03-17T11:28:46;15.00;99.90
34147;DHT22;20423;49.448;9.056;2024-03-17T11:31:32;15.40;99.90
34147;DHT22;20423;49.448;9.056;2024-03-17T11:33:58;15.80;99.90
34147;DHT22;20423;49.448;9.056;2024-03-17T11:39:04;16.20;99.90
34147;DHT22;20423;49.448;9.056;2024-03-17T11:41:53;16.40;99.90
34147;DHT22;20423;49.448;9.056;2024-03-17T11:46:58;16.10;99.90
34147;DHT22;20423;49.448;9.056;2024-03-17T11:49:27;15.90;99.90
34147;DHT22;20423;49.448;9.056;2024-03-17T11:51:54;15.60;99.90
34147;DHT22;20423;49.448;9.056;2024-03-17T11:54:29;15.10;99.90
34147;DHT22;20423;49.448;9.056;2024-03-17T11:57:06;15.40;99.90
34147;DHT22;20423;49.448;9.056;2024-03-17T11:59:32;15.50;99.90
34147;DHT22;20423;49.448;9.056;2024-03-17T12:01:59;15.70;99.90
34147;DHT22;20423;49.448;9.056;2024-03-17T12:04:25;15.20;99.90
34147;DHT22;20423;49.448;9.056;2024-03-17T12:06:55;14.90;99.90
34147;DHT22;20423;49.448;9.056;2024-03-17T12:09:26;14.90;99.90
34147;DHT22;20423;49.448;9.056;2024-03-17T12:14:27;15.40;99.90
34147;DHT22;20423;49.448;9.056;2024-03-17T12:16:59;15.60;99.90
34147;DHT22;20423;49.448;9.056;2024-03-17T12:19:25;15.90;99.90
34147;DHT22;20423;49.448;9.056;2024-03-17T12:22:03;15.90;99.90
34147;DHT22;20423;49.448;9.056;2024-03-17T12:24:34;15.90;99.90
34147;DHT22;20423;49.448;9.056;2024-03-17T12:27:00;15.40;99.90
34147;DHT22;20423;49.448;9.056;2024-03-17T12:29:40;14.90;99.90
34147;DHT22;20423;49.448;9.056;2024-03-17T12:32:25;14.30;99.90
34147;DHT22;20423;49.448;9.056;2024-03-17T12:34:54;13.90;99.90
34147;DHT22;20423;49.448;9.056;2024-03-17T12:37:25;14.00;99.90
34147;DHT22;20423;49.448;9.056;2024-03-17T12:39:56;14.00;99.90
34147;DHT22;20423;49.448;9.056;2024-03-17T12:42:24;13.70;99.90
34147;DHT22;20423;49.448;9.056;2024-03-17T12:44:54;13.40;99.90
34147;DHT22;20423;49.448;9.056;2024-03-17T12:47:29;13.40;99.90
34147;DHT22;20423;49.448;9.056;2024-03-17T12:49:56;13.10;99.90
34147;DHT22;20423;49.448;9.056;2024-03-17T12:52:23;13.30;99.90
34147;DHT22;20423;49.448;9.056;2024-03-17T12:57:47;13.10;99.90
34147;DHT22;20423;49.448;9.056;2024-03-17T13:00:32;13.20;99.90
34147;DHT22;20423;49.448;9.056;2024-03-17T13:02:58;13.40;99.90
34147;DHT22;20423;49.448;9.056;2024-03-17T13:05:24;13.60;99.90
34147;DHT22;20423;49.448;9.056;2024-03-17T13:07:50;13.80;99.90
34147;DHT22;20423;49.448;9.056;2024-03-17T13:10:20;13.70;99.90
34147;DHT22;20423;49.448;9.056;2024-03-17T13:12:47;13.70;99.90
34147;DHT22;20423;49.448;9.056;2024-03-17T13:15:17;13.50;99.90
34147;DHT22;20423;49.448;9.056;2024-03-17T13:17:46;13.40;99.90
34147;DHT22;20423;49.448;9.056;2024-03-17T13:20:15;13.10;99.90
34147;DHT22;20423;49.448;9.056;2024-03-17T13:22:43;12.60;99.90
34147;DHT22;20423;49.448;9.056;2024-03-17T13:25:17;12.50;99.90
34147;DHT22;20423;49.448;9.056;2024-03-17T13:27:44;12.50;99.90
34147;DHT22;20423;49.448;9.056;2024-03-17T13:30:14;12.60;99.90
34147;DHT22;20423;49.448;9.056;2024-03-17T13:32:40;12.70;99.90
34147;DHT22;20423;49.448;9.056;2024-03-17T13:35:18;12.90;99.90
34147;DHT22;20423;49.448;9.056;2024-03-17T13:37:48;12.90;99.90
34147;DHT22;20423;49.448;9.056;2024-03-17T13:40:15;12.70;99.90
34147;DHT22;20423;49.448;9.056;2024-03-17T13:42:49;12.70;99.90
34147;DHT22;20423;49.448;9.056;2024-03-17T13:45:16;12.80;99.90
34147;DHT22;20423;49.448;9.056;2024-03-17T13:47:47;12.90;99.90
34147;DHT22;20423;49.448;9.056;2024-03-17T13:50:14;12.90;99.90
34147;DHT22;20423;49.448;9.056;2024-03-17T13:52:40;12.80;99.90
34147;DHT22;20423;49.448;9.056;2024-03-17T13:55:08;12.80;99.90
34147;DHT22;20423;49.448;9.056;2024-03-17T13:57:37;12.70;99.90
34147;DHT22;20423;49.448;9.056;2024-03-17T14:00:03;12.60;99.90
34147;DHT22;20423;49.448;9.056;2024-03-17T14:02:37;12.80;99.90
34147;DHT22;20423;49.448;9.056;2024-03-17T14:05:03;13.00;99.90
34147;DHT22;20423;49.448;9.056;2024-03-17T14:07:33;12.90;99.90
34147;DHT22;20423;49.448;9.056;2024-03-17T14:09:59;12.90;99.90
34147;DHT22;20423;49.448;9.056;2024-03-17T14:12:25;13.10;99.90
34147;DHT22;20423;49.448;9.056;2024-03-17T14:14:51;13.30;99.90
34147;DHT22;20423;49.448;9.056;2024-03-17T14:17:18;13.30;99.90
34147;DHT22;20423;49.448;9.056;2024-03-17T14:19:44;13.30;99.90
34147;DHT22;20423;49.448;9.056;2024-03-17T14:22:09;13.20;99.90
34147;DHT22;20423;49.448;9.056;2024-03-17T14:24:35;12.80;99.90
34147;DHT22;20423;49.448;9.056;2024-03-17T14:27:01;12.80;99.90
34147;DHT22;20423;49.448;9.056;2024-03-17T14:29:26;12.60;99.90
34147;DHT22;20423;49.448;9.056;2024-03-17T14:31:52;12.80;99.90
34147;DHT22;20423;49.448;9.056;2024-03-17T14:34:18;12.90;99.90
34147;DHT22;20423;49.448;9.056;2024-03-17T14:36:43;12.90;99.90
34147;DHT22;20423;49.448;9.056;2024-03-17T14:39:09;12.90;99.90
34147;DHT22;20423;49.448;9.056;2024-03-17T14:41:36;13.00;99.90
34147;DHT22;20423;49.448;9.056;2024-03-17T14:44:02;12.60;99.90
34147;DHT22;20423;49.448;9.056;2024-03-17T14:46:29;12.50;99.90
34147;DHT22;20423;49.448;9.056;2024-03-17T14:48:55;12.50;99.90
34147;DHT22;20423;49.448;9.056;2024-03-17T14:51:21;12.60;99.90
34147;DHT22;20423;49.448;9.056;2024-03-17T14:53:47;12.60;99.90
34147;DHT22;20423;49.448;9.056;2024-03-17T14:56:18;12.60;99.90
34147;DHT22;20423;49.448;9.056;2024-03-17T14:58:45;12.60;99.90
34147;DHT22;20423;49.448;9.056;2024-03-17T15:01:12;12.90;99.90
34147;DHT22;20423;49.448;9.056;2024-03-17T15:03:38;12.90;99.90
34147;DHT22;20423;49.448;9.056;2024-03-17T15:06:12;12.70;99.90
34147;DHT22;20423;49.448;9.056;2024-03-17T15:08:40;12.70;99.90
34147;DHT22;20423;49.448;9.056;2024-03-17T15:11:07;12.80;99.90
34147;DHT22;20423;49.448;9.056;2024-03-17T15:13:35;13.00;99.90
34147;DHT22;20423;49.448;9.056;2024-03-17T15:16:01;13.10;99.90
34147;DHT22;20423;49.448;9.056;2024-03-17T15:18:30;13.20;99.90
34147;DHT22;20423;49.448;9.056;2024-03-17T15:20:56;13.30;99.90
34147;DHT22;20423;49.448;9.056;2024-03-17T15:23:22;13.20;99.90
34147;DHT22;20423;49.448;9.056;2024-03-17T15:28:27;12.70;99.90
34147;DHT22;20423;49.448;9.056;2024-03-17T15:30:53;12.50;99.90
34147;DHT22;20423;49.448;9.056;2024-03-17T15:33:18;12.40;99.90
34147;DHT22;20423;49.448;9.056;2024-03-17T15:35:44;12.50;99.90
34147;DHT22;20423;49.448;9.056;2024-03-17T15:38:10;12.60;99.90
34147;DHT22;20423;49.448;9.056;2024-03-17T15:40:37;12.40;99.90
34147;DHT22;20423;49.448;9.056;2024-03-17T15:43:03;12.40;99.90
34147;DHT22;20423;49.448;9.056;2024-03-17T15:45:29;12.50;99.90
34147;DHT22;20423;49.448;9.056;2024-03-17T15:47:55;12.50;99.90
34147;DHT22;20423;49.448;9.056;2024-03-17T15:50:22;12.60;99.90
34147;DHT22;20423;49.448;9.056;2024-03-17T15:52:48;12.80;99.90
34147;DHT22;20423;49.448;9.056;2024-03-17T15:55:14;12.70;99.90
34147;DHT22;20423;49.448;9.056;2024-03-17T15:57:40;12.60;99.90
34147;DHT22;20423;49.448;9.056;2024-03-17T16:00:07;12.50;99.90
34147;DHT22;20423;49.448;9.056;2024-03-17T16:02:40;12.30;99.90
34147;DHT22;20423;49.448;9.056;2024-03-17T16:05:07;12.20;99.90
34147;DHT22;20423;49.448;9.056;2024-03-17T16:07:36;12.00;99.90
34147;DHT22;20423;49.448;9.056;2024-03-17T16:10:04;11.80;99.90
34147;DHT22;20423;49.448;9.056;2024-03-17T16:12:30;11.60;99.90
34147;DHT22;20423;49.448;9.056;2024-03-17T16:14:55;11.30;99.90